DTA weather

Delta Municipal Airport
Delta, Utah, United States

Public forecast

Using degrees Fahrenheit for public forecast. Weather courtesy of forecast.io.

METAR (pilot weather report)

Retrieved 2019/07/20 16:35 UTC (21 minutes ago):

KDTA 201635Z AUTO 19007KT 10SM CLR 27/01 A3005 RMK AO1

TAF (pilot weather forecast)

Closest forecast is Provo Municipal Airport, 62.0 nm (114.9 km) NE. Retrieved 2019/07/20 12:22 UTC (5 hours ago):

TAF KPVU 201120Z 2012/2112 VRB05KT P6SM FEW150 FM201800 24007KT P6SM FEW150 FM210300 14004KT P6SM SKC